Terminal Aerodrome Forecast
Issued by NWS Wilmington, OH

Current Version | Previous Version | Graphics & Text | Print | Product List | Glossary On
Versions: 1 2 3 4 5 6 7 8 9 10 11 12 13 14 15 16 17 18 19 20
048
FTUS41 KILN 281432 AAB
TAFILN
TAF AMD
KILN 281432Z 2815/2912 20007KT P6SM VCSH SCT050 BKN120
     FM281700 21011KT P6SM VCTS SCT040CB BKN200
     FM282100 21012KT P6SM BKN040 OVC150
     FM282300 19003KT P6SM BKN150=

USA.gov is the U.S. government's official web portal to all federal, state and local government web resources and services.